Time;durP1;ratioP1;P1;durP2;ratioP2;P2;SDS_P1;SDS_P2;PMS_P1;PMS_P2;Temp;Humidity;BMP_temperature;BMP_pressure;BME280_temperature;BME280_humidity;BME280_pressure;Samples;Min_cycle;Max_cycle;Signal;HPM_P1;HPM_P2
2021/12/29 00:01:47;;;;;;;;;;;;;;;21.31;33.57;100639.52;101278;1363;61793;-82
2021/12/29 00:04:53;;;;;;;;;;;;;;;21.32;33.64;100646.82;101286;1363;72865;-82
2021/12/29 00:07:53;;;;;;;;;;;;;;;21.32;33.68;100649.70;101433;1361;74653;-82
2021/12/29 00:10:33;;;;;;;;;;;;;;;;;;;;;
2021/12/29 00:13:19;;;;;;;;;;;;;;;21.32;33.59;100651.82;101773;1351;61231;-82
2021/12/29 00:15:58;;;;;;;;;;;;;;;;;;;;;
2021/12/29 00:19:02;;;;;;;;;;;;;;;21.31;33.50;100645.80;101784;1355;74864;-83
2021/12/29 00:21:39;;;;;;;;;;;;;;;;;;;;;
2021/12/29 00:24:15;;;;;;;;;;;;;;;21.32;33.62;100648.80;101670;1360;61394;-83
2021/12/29 00:27:01;;;;;;;;;;;;;;;21.31;33.52;100643.28;101726;1354;72907;-84
2021/12/29 00:29:35;;;;;;;;;;;;;;;21.31;33.47;100636.70;101758;1354;73893;-83
2021/12/29 00:32:24;;;;;;;;;;;;;;;21.31;33.53;100644.36;101757;1355;61461;-83
2021/12/29 00:35:15;;;;;;;;;;;;;;;21.31;33.62;100645.43;101704;1354;61214;-83
2021/12/29 00:38:03;;;;;;;;;;;;;;;21.31;33.55;100646.02;101762;1358;74018;-83
2021/12/29 00:40:47;;;;;;;;;;;;;;;;;;;;;
2021/12/29 00:43:20;;;;;;;;;;;;;;;21.31;33.43;100628.98;101742;1358;61324;-83
2021/12/29 00:46:11;;;;;;;;;;;;;;;;;;;;;
2021/12/29 00:48:58;;;;;;;;;;;;;;;21.31;33.38;100622.55;101540;1357;71746;-84
2021/12/29 00:51:23;;;;;;;;;;;;;;;21.31;33.42;100619.15;101558;1357;74713;-83
2021/12/29 00:54:09;;;;;;;;;;;;;;;21.30;33.63;100616.66;101276;1366;59164;-83
2021/12/29 00:56:48;;;;;;;;;;;;;;;21.30;33.46;100621.86;101076;1366;61297;-84
2021/12/29 00:59:26;;;;;;;;;;;;;;;21.30;33.48;100622.27;101089;1363;73239;-84
2021/12/29 01:02:14;;;;;;;;;;;;;;;;;;;;;
2021/12/29 01:04:43;;;;;;;;;;;;;;;21.29;33.55;100624.79;101103;1366;61228;-83
2021/12/29 01:07:11;;;;;;;;;;;;;;;21.29;33.51;100619.95;101114;1362;61579;-83
2021/12/29 01:10:10;;;;;;;;;;;;;;;;;;;;;
2021/12/29 01:12:59;;;;;;;;;;;;;;;21.30;33.48;100622.10;101128;1362;75513;-83
2021/12/29 01:15:36;;;;;;;;;;;;;;;21.30;33.48;100627.46;100984;1366;61249;-82
2021/12/29 01:18:17;;;;;;;;;;;;;;;21.29;33.49;100632.16;101112;1366;61322;-82
2021/12/29 01:21:10;;;;;;;;;;;;;;;;;;;;;
2021/12/29 01:24:04;;;;;;;;;;;;;;;21.30;33.47;100619.39;101441;1363;76319;-82
2021/12/29 01:26:43;;;;;;;;;;;;;;;21.30;33.58;100612.42;101370;1359;61559;-82
2021/12/29 01:29:46;;;;;;;;;;;;;;;21.30;33.56;100609.73;101440;1364;61453;-83
2021/12/29 01:32:32;;;;;;;;;;;;;;;21.29;33.49;100607.80;101586;1351;73758;-83
2021/12/29 01:35:09;;;;;;;;;;;;;;;21.29;33.60;100610.85;102066;1350;74791;-82
2021/12/29 01:37:44;;;;;;;;;;;;;;;21.29;33.60;100615.14;102032;1351;61300;-83
2021/12/29 01:40:31;;;;;;;;;;;;;;;;;;;;;
2021/12/29 01:43:07;;;;;;;;;;;;;;;21.29;33.67;100615.02;102034;1349;73839;-84
2021/12/29 01:45:55;;;;;;;;;;;;;;;21.29;33.39;100619.31;101996;1351;74807;-83
2021/12/29 01:48:30;;;;;;;;;;;;;;;21.28;33.46;100620.92;102100;1351;61351;-84
2021/12/29 01:51:12;;;;;;;;;;;;;;;21.29;33.61;100615.02;101970;1345;61245;-83
2021/12/29 01:54:24;;;;;;;;;;;;;;;21.29;33.55;100618.25;102084;1349;71388;-83
2021/12/29 01:57:02;;;;;;;;;;;;;;;21.29;33.43;100624.84;102095;1348;74760;-83
2021/12/29 02:00:17;;;;;;;;;;;;;;;21.29;33.63;100626.29;101962;1348;61218;-83
2021/12/29 02:02:56;;;;;;;;;;;;;;;21.28;33.56;100627.05;101767;1358;61371;-83
2021/12/29 02:05:53;;;;;;;;;;;;;;;21.28;33.53;100619.52;101698;1354;71455;-83
2021/12/29 02:08:59;;;;;;;;;;;;;;;21.28;33.60;100617.56;101709;1357;73484;-83
2021/12/29 02:11:37;;;;;;;;;;;;;;;21.28;33.65;100613.10;101813;1351;61306;-83
2021/12/29 02:14:28;;;;;;;;;;;;;;;21.28;33.47;100605.38;101744;1358;61455;-84
2021/12/29 02:17:43;;;;;;;;;;;;;;;21.29;33.53;100590.33;101694;1357;74375;-84
2021/12/29 02:20:31;;;;;;;;;;;;;;;21.28;33.59;100590.19;101398;1363;74709;-84
2021/12/29 02:23:23;;;;;;;;;;;;;;;;;;;;;
2021/12/29 02:26:10;;;;;;;;;;;;;;;21.29;33.44;100597.30;100768;1369;61294;-84
2021/12/29 02:29:01;;;;;;;;;;;;;;;21.28;33.47;100595.17;100765;1365;73908;-83
2021/12/29 02:31:47;;;;;;;;;;;;;;;21.29;33.35;100594.23;100771;1365;74852;-83
2021/12/29 02:34:32;;;;;;;;;;;;;;;21.29;33.47;100595.32;100013;1378;61400;-83
2021/12/29 02:37:20;;;;;;;;;;;;;;;21.28;33.49;100594.13;100024;1374;60471;-83
2021/12/29 02:40:15;;;;;;;;;;;;;;;21.28;33.38;100591.95;100271;1372;72951;-83
2021/12/29 02:42:44;;;;;;;;;;;;;;;21.28;33.49;100591.25;100438;1371;75351;-82
2021/12/29 02:45:17;;;;;;;;;;;;;;;21.29;33.49;100591.92;100435;1368;61369;-83
2021/12/29 02:48:22;;;;;;;;;;;;;;;21.29;33.40;100586.73;100481;1372;61313;-82
2021/12/29 02:51:19;;;;;;;;;;;;;;;21.28;33.43;100583.52;100580;1371;72866;-84
2021/12/29 02:54:04;;;;;;;;;;;;;;;;;;;;;
2021/12/29 02:56:54;;;;;;;;;;;;;;;21.27;33.46;100575.94;100489;1366;61215;-83
2021/12/29 02:59:40;;;;;;;;;;;;;;;21.28;33.40;100574.80;101081;1361;62365;-83
2021/12/29 03:02:26;;;;;;;;;;;;;;;21.27;33.42;100576.08;101672;1351;71568;-84
2021/12/29 03:05:25;;;;;;;;;;;;;;;21.28;33.33;100578.40;101615;1351;75645;-86
2021/12/29 03:08:04;;;;;;;;;;;;;;;21.28;33.44;100578.94;101764;1357;61707;-84
2021/12/29 03:11:02;;;;;;;;;;;;;;;;;;;;;
2021/12/29 03:13:49;;;;;;;;;;;;;;;21.28;33.55;100578.33;101987;1345;72570;-83
2021/12/29 03:16:36;;;;;;;;;;;;;;;;;;;;;
2021/12/29 03:19:23;;;;;;;;;;;;;;;;;;;;;
2021/12/29 03:21:59;;;;;;;;;;;;;;;21.29;33.43;100578.34;102035;1345;61317;-82
2021/12/29 03:25:05;;;;;;;;;;;;;;;21.28;33.41;100571.75;101990;1345;73806;-81
2021/12/29 03:27:42;;;;;;;;;;;;;;;21.28;33.52;100566.20;102074;1348;76039;-83
2021/12/29 03:30:43;;;;;;;;;;;;;;;21.28;33.48;100579.07;102057;1346;59280;-82
2021/12/29 03:33:29;;;;;;;;;;;;;;;;;;;;;
2021/12/29 03:36:17;;;;;;;;;;;;;;;21.29;33.43;100575.46;102092;1344;73214;-83
2021/12/29 03:39:16;;;;;;;;;;;;;;;;;;;;;
2021/12/29 03:42:10;;;;;;;;;;;;;;;21.29;33.47;100580.66;101737;1354;61212;-83
2021/12/29 03:44:36;;;;;;;;;;;;;;;21.28;33.41;100570.13;101560;1357;61548;-83
2021/12/29 03:47:34;;;;;;;;;;;;;;;;;;;;;
2021/12/29 03:50:21;;;;;;;;;;;;;;;21.28;33.25;100579.29;101456;1363;75312;-83
2021/12/29 03:53:05;;;;;;;;;;;;;;;;;;;;;
2021/12/29 03:56:08;;;;;;;;;;;;;;;21.28;33.40;100573.02;101376;1360;61310;-83
2021/12/29 03:59:07;;;;;;;;;;;;;;;21.27;33.50;100570.73;101514;1363;72655;-82
2021/12/29 04:02:15;;;;;;;;;;;;;;;21.26;33.39;100567.00;101550;1357;74592;-83
2021/12/29 04:05:04;;;;;;;;;;;;;;;;;;;;;
2021/12/29 04:08:16;;;;;;;;;;;;;;;21.27;33.44;100567.88;101535;1363;61476;-83
2021/12/29 04:10:46;;;;;;;;;;;;;;;21.26;33.37;100570.09;101388;1363;70482;-84
2021/12/29 04:13:47;;;;;;;;;;;;;;;;;;;;;
2021/12/29 04:16:40;;;;;;;;;;;;;;;;;;;;;
2021/12/29 04:22:26;;;;;;;;;;;;;;;21.27;33.34;100570.72;101831;1349;72829;-84
2021/12/29 04:25:36;;;;;;;;;;;;;;;21.27;33.39;100563.20;101995;1345;73649;-84
2021/12/29 04:28:15;;;;;;;;;;;;;;;21.28;33.37;100558.53;101813;1357;61215;-83
2021/12/29 04:30:44;;;;;;;;;;;;;;;21.27;33.35;100557.51;101814;1355;61960;-84
2021/12/29 04:33:33;;;;;;;;;;;;;;;21.27;33.46;100558.21;101689;1357;73773;-83
2021/12/29 04:36:14;;;;;;;;;;;;;;;21.26;33.27;100552.70;101508;1363;75639;-83
2021/12/29 04:38:44;;;;;;;;;;;;;;;21.26;33.43;100554.52;101530;1363;61257;-83
2021/12/29 04:41:18;;;;;;;;;;;;;;;21.25;33.44;100551.52;101542;1358;61317;-83
2021/12/29 04:44:10;;;;;;;;;;;;;;;21.24;33.38;100549.98;101524;1357;73544;-83
2021/12/29 04:47:01;;;;;;;;;;;;;;;;;;;;;
2021/12/29 04:50:12;;;;;;;;;;;;;;;;;;;;;
2021/12/29 04:52:57;;;;;;;;;;;;;;;21.24;33.15;100550.73;101467;1360;61651;-83
2021/12/29 04:55:55;;;;;;;;;;;;;;;;;;;;;
2021/12/29 04:58:37;;;;;;;;;;;;;;;21.23;33.39;100541.30;100943;1362;74956;-83
2021/12/29 05:01:37;;;;;;;;;;;;;;;21.23;33.28;100542.55;101342;1366;61290;-83
2021/12/29 05:04:31;;;;;;;;;;;;;;;;;;;;;
2021/12/29 05:10:45;;;;;;;;;;;;;;;21.23;33.26;100544.86;101664;1357;73591;-82
2021/12/29 05:13:41;;;;;;;;;;;;;;;;;;;;;
2021/12/29 05:16:31;;;;;;;;;;;;;;;21.23;33.32;100543.25;101888;1354;61776;-82
2021/12/29 05:19:06;;;;;;;;;;;;;;;21.23;33.51;100541.48;101858;1356;72886;-83
2021/12/29 05:22:07;;;;;;;;;;;;;;;;;;;;;
2021/12/29 05:25:03;;;;;;;;;;;;;;;;;;;;;
2021/12/29 05:27:50;;;;;;;;;;;;;;;21.23;33.32;100532.21;102034;1351;61425;-83
2021/12/29 05:30:48;;;;;;;;;;;;;;;;;;;;;
2021/12/29 05:33:43;;;;;;;;;;;;;;;21.21;33.30;100544.89;102003;1350;76402;-83
2021/12/29 05:36:39;;;;;;;;;;;;;;;;;;;;;
2021/12/29 05:39:36;;;;;;;;;;;;;;;;;;;;;
2021/12/29 05:42:57;;;;;;;;;;;;;;;21.20;33.36;100550.30;101718;1354;73982;-83
2021/12/29 05:45:24;;;;;;;;;;;;;;;21.20;33.14;100547.30;101613;1358;75204;-83
2021/12/29 05:48:23;;;;;;;;;;;;;;;21.19;33.39;100551.44;101755;1358;61175;-84
2021/12/29 05:51:12;;;;;;;;;;;;;;;;;;;;;
2021/12/29 05:53:52;;;;;;;;;;;;;;;21.19;33.48;100553.77;101527;1360;73896;-82
2021/12/29 05:56:51;;;;;;;;;;;;;;;;;;;;;
2021/12/29 05:59:21;;;;;;;;;;;;;;;21.18;33.14;100558.14;101512;1355;61413;-82
2021/12/29 06:02:04;;;;;;;;;;;;;;;21.18;33.38;100558.69;101605;1355;61215;-82
2021/12/29 06:05:00;;;;;;;;;;;;;;;21.18;33.44;100560.85;101531;1358;73315;-83
2021/12/29 06:07:37;;;;;;;;;;;;;;;21.18;33.39;100563.23;101571;1360;75851;-83
2021/12/29 06:10:37;;;;;;;;;;;;;;;;;;;;;
2021/12/29 06:13:15;;;;;;;;;;;;;;;21.17;33.28;100574.00;101483;1363;61479;-83
2021/12/29 06:16:01;;;;;;;;;;;;;;;21.17;33.25;100579.36;101436;1356;71680;-83
2021/12/29 06:18:35;;;;;;;;;;;;;;;21.17;33.24;100576.15;101834;1352;74654;-83
2021/12/29 06:21:27;;;;;;;;;;;;;;;21.17;33.26;100570.97;101773;1351;61399;-80
2021/12/29 06:24:17;;;;;;;;;;;;;;;21.17;33.31;100569.55;101863;1348;61062;-82
2021/12/29 06:26:52;;;;;;;;;;;;;;;21.16;33.17;100576.90;101799;1357;74905;-82
2021/12/29 06:29:18;;;;;;;;;;;;;;;21.16;33.23;100577.45;101764;1357;75985;-83
2021/12/29 06:32:26;;;;;;;;;;;;;;;21.16;33.26;100575.67;101806;1351;61354;-82
2021/12/29 06:35:12;;;;;;;;;;;;;;;21.15;33.16;100571.10;101838;1356;61877;-83
2021/12/29 06:38:20;;;;;;;;;;;;;;;21.15;33.12;100573.80;101777;1355;75753;-83
2021/12/29 06:41:05;;;;;;;;;;;;;;;;;;;;;
2021/12/29 06:44:03;;;;;;;;;;;;;;;;;;;;;
2021/12/29 06:46:48;;;;;;;;;;;;;;;21.15;33.16;100579.54;101826;1357;61282;-83
2021/12/29 06:49:35;;;;;;;;;;;;;;;;;;;;;
2021/12/29 06:52:16;;;;;;;;;;;;;;;21.14;33.27;100575.33;101830;1348;74515;-83
2021/12/29 06:54:51;;;;;;;;;;;;;;;21.13;33.28;100573.56;101802;1354;61303;-83
2021/12/29 06:57:57;;;;;;;;;;;;;;;;;;;;;
2021/12/29 07:00:33;;;;;;;;;;;;;;;21.12;33.37;100570.60;101558;1360;73734;-83
2021/12/29 07:03:41;;;;;;;;;;;;;;;;;;;;;
2021/12/29 07:06:02;;;;;;;;;;;;;;;21.12;33.27;100580.12;101591;1361;61341;-83
2021/12/29 07:09:16;;;;;;;;;;;;;;;21.11;33.32;100577.13;101563;1357;61279;-84
2021/12/29 07:12:07;;;;;;;;;;;;;;;21.11;33.18;100565.51;101504;1361;73936;-84
2021/12/29 07:14:37;;;;;;;;;;;;;;;21.11;33.36;100559.60;100722;1357;745553;-81
2021/12/29 07:17:29;;;;;;;;;;;;;;;;;;;;;
2021/12/29 07:20:00;;;;;;;;;;;;;;;21.10;33.45;100569.63;101414;1355;61790;-81
2021/12/29 07:22:35;;;;;;;;;;;;;;;21.11;33.16;100574.27;101326;1360;73843;-82
2021/12/29 07:25:22;;;;;;;;;;;;;;;21.10;33.17;100578.95;101445;1362;76237;-82
2021/12/29 07:28:02;;;;;;;;;;;;;;;;;;;;;
2021/12/29 07:30:48;;;;;;;;;;;;;;;21.10;33.19;100577.35;101518;1357;61205;-83
2021/12/29 07:34:04;;;;;;;;;;;;;;;21.09;33.09;100574.17;101523;1360;71487;-83
2021/12/29 07:36:51;;;;;;;;;;;;;;;;;;;;;
2021/12/29 07:39:37;;;;;;;;;;;;;;;21.10;33.19;100571.84;101550;1356;61259;-82
2021/12/29 07:42:29;;;;;;;;;;;;;;;21.09;33.30;100574.89;101546;1363;61319;-82
2021/12/29 07:45:18;;;;;;;;;;;;;;;21.10;33.30;100586.30;101507;1360;73189;-82
2021/12/29 07:47:56;;;;;;;;;;;;;;;21.10;33.09;100586.48;101526;1360;75150;-83
2021/12/29 07:51:00;;;;;;;;;;;;;;;21.09;33.12;100584.02;101523;1356;61397;-82
2021/12/29 07:54:14;;;;;;;;;;;;;;;;;;;;;
2021/12/29 07:57:11;;;;;;;;;;;;;;;21.09;33.15;100584.73;100581;1366;72743;-84
2021/12/29 07:59:51;;;;;;;;;;;;;;;;;;;;;
2021/12/29 08:02:43;;;;;;;;;;;;;;;21.09;33.22;100581.02;100248;1377;60475;-83
2021/12/29 08:05:12;;;;;;;;;;;;;;;21.09;33.28;100583.13;100164;1378;61392;-82
2021/12/29 08:08:11;;;;;;;;;;;;;;;;;;;;;
2021/12/29 08:10:49;;;;;;;;;;;;;;;21.09;33.23;100580.30;100224;1369;75824;-83
2021/12/29 08:13:38;;;;;;;;;;;;;;;21.09;33.29;100585.52;100500;1366;61271;-83
2021/12/29 08:16:26;;;;;;;;;;;;;;;;;;;;;
2021/12/29 08:19:24;;;;;;;;;;;;;;;21.09;33.43;100603.76;100576;1371;72971;-82
2021/12/29 08:22:28;;;;;;;;;;;;;;;21.08;33.28;100598.61;100513;1372;74865;-82
2021/12/29 08:25:13;;;;;;;;;;;;;;;21.08;33.25;100598.65;100627;1372;61402;-83
2021/12/29 08:27:59;;;;;;;;;;;;;;;21.07;33.34;100599.74;100602;1372;61494;-83
2021/12/29 08:31:04;;;;;;;;;;;;;;;;;;;;;
2021/12/29 08:33:47;;;;;;;;;;;;;;;21.07;33.14;100601.17;100103;1368;74614;-82
2021/12/29 08:36:21;;;;;;;;;;;;;;;21.08;33.14;100602.75;100313;1370;61416;-83
2021/12/29 08:39:42;;;;;;;;;;;;;;;21.08;33.28;100605.27;100633;1369;61247;-83
2021/12/29 08:42:34;;;;;;;;;;;;;;;21.08;33.16;100595.39;100248;1368;72859;-83
2021/12/29 08:45:21;;;;;;;;;;;;;;;21.08;33.28;100593.61;100424;1371;76191;-82
2021/12/29 08:48:12;;;;;;;;;;;;;;;21.08;33.30;100590.55;100470;1368;61199;-82
2021/12/29 08:50:54;;;;;;;;;;;;;;;;;;;;;
2021/12/29 08:53:56;;;;;;;;;;;;;;;21.08;33.17;100586.08;100443;1373;72595;-83
2021/12/29 08:56:53;;;;;;;;;;;;;;;21.08;33.31;100590.02;100440;1373;74814;-83
2021/12/29 08:59:52;;;;;;;;;;;;;;;;;;;;;
2021/12/29 09:02:38;;;;;;;;;;;;;;;21.08;33.40;100595.03;100414;1372;61478;-83
2021/12/29 09:05:30;;;;;;;;;;;;;;;;;;;;;
2021/12/29 09:07:56;;;;;;;;;;;;;;;21.07;33.28;100583.83;100228;1372;74692;-83
2021/12/29 09:10:58;;;;;;;;;;;;;;;21.07;33.32;100581.48;100388;1368;61717;-83
2021/12/29 09:13:37;;;;;;;;;;;;;;;21.07;33.23;100584.52;100394;1373;61428;-83
2021/12/29 09:16:09;;;;;;;;;;;;;;;21.07;33.27;100582.05;100455;1366;73004;-84
2021/12/29 09:19:15;;;;;;;;;;;;;;;21.07;33.21;100574.92;100472;1371;73862;-83
2021/12/29 09:21:55;;;;;;;;;;;;;;;;;;;;;
2021/12/29 09:24:47;;;;;;;;;;;;;;;21.06;33.16;100568.52;100504;1365;61617;-83
2021/12/29 09:27:50;;;;;;;;;;;;;;;21.07;33.15;100568.48;100283;1368;73854;-83
2021/12/29 09:30:26;;;;;;;;;;;;;;;21.06;33.18;100568.16;100042;1369;75914;-81
2021/12/29 09:33:13;;;;;;;;;;;;;;;21.06;33.17;100561.41;100263;1372;61511;-81
2021/12/29 09:36:02;;;;;;;;;;;;;;;21.05;33.22;100556.96;100164;1375;61246;-81
2021/12/29 09:38:46;;;;;;;;;;;;;;;;;;;;;
2021/12/29 09:41:32;;;;;;;;;;;;;;;;;;;;;
2021/12/29 09:44:15;;;;;;;;;;;;;;;;;;;;;
2021/12/29 09:46:44;;;;;;;;;;;;;;;21.05;33.35;100526.00;100621;1367;61747;-81
2021/12/29 09:49:30;;;;;;;;;;;;;;;21.05;33.37;100518.48;100789;1359;70542;-81
2021/12/29 09:51:59;;;;;;;;;;;;;;;21.05;33.37;100513.30;100911;1366;74534;-81
2021/12/29 09:54:29;;;;;;;;;;;;;;;21.05;33.44;100505.43;100896;1359;61501;-81
2021/12/29 09:57:00;;;;;;;;;;;;;;;21.06;33.44;100503.07;100939;1366;61401;-81
2021/12/29 09:59:26;;;;;;;;;;;;;;;21.05;33.45;100491.83;100727;1366;72883;-81
2021/12/29 10:01:52;;;;;;;;;;;;;;;21.06;33.48;100491.63;101050;1362;61366;-83
2021/12/29 10:04:38;;;;;;;;;;;;;;;21.05;33.45;100500.77;100770;1359;61768;-82
2021/12/29 10:07:27;;;;;;;;;;;;;;;21.05;33.50;100497.72;100568;1363;61347;-82
2021/12/29 10:09:56;;;;;;;;;;;;;;;21.05;33.52;100502.95;100536;1370;72559;-81
2021/12/29 10:12:22;;;;;;;;;;;;;;;21.05;33.44;100498.98;100546;1366;74927;-81
2021/12/29 10:14:57;;;;;;;;;;;;;;;21.05;33.51;100492.94;100367;1370;61334;-81
2021/12/29 10:17:47;;;;;;;;;;;;;;;21.04;33.53;100486.19;100684;1369;61541;-82
2021/12/29 10:20:33;;;;;;;;;;;;;;;21.04;33.60;100490.34;100767;1366;72822;-83
2021/12/29 10:23:22;;;;;;;;;;;;;;;21.03;33.58;100495.20;100762;1368;74894;-82
2021/12/29 10:25:59;;;;;;;;;;;;;;;;;;;;;
2021/12/29 10:28:48;;;;;;;;;;;;;;;;;;;;;
2021/12/29 10:31:31;;;;;;;;;;;;;;;21.03;33.62;100470.55;100743;1365;72683;-83
2021/12/29 10:34:19;;;;;;;;;;;;;;;21.02;33.65;100473.66;100748;1366;75396;-84
2021/12/29 10:37:17;;;;;;;;;;;;;;;21.02;33.64;100474.57;100838;1369;61568;-83
2021/12/29 10:39:58;;;;;;;;;;;;;;;21.02;33.55;100464.21;100831;1366;61417;-83
2021/12/29 10:42:46;;;;;;;;;;;;;;;21.01;33.76;100455.65;101211;1358;73618;-83
2021/12/29 10:45:33;;;;;;;;;;;;;;;;;;;;;
2021/12/29 10:48:34;;;;;;;;;;;;;;;;;;;;;
2021/12/29 10:51:28;;;;;;;;;;;;;;;21.01;33.72;100442.06;101671;1359;61319;-83
2021/12/29 10:54:25;;;;;;;;;;;;;;;21.01;33.79;100441.90;101742;1351;73891;-82
2021/12/29 10:57:08;;;;;;;;;;;;;;;;;;;;;
2021/12/29 11:00:02;;;;;;;;;;;;;;;21.01;33.77;100433.14;101660;1357;61305;-83
2021/12/29 11:02:52;;;;;;;;;;;;;;;21.01;33.95;100428.15;101729;1354;61331;-83
2021/12/29 11:05:48;;;;;;;;;;;;;;;;;;;;;
2021/12/29 11:09:29;;;;;;;;;;;;;;;21.00;33.81;100424.66;101665;1354;73645;-83
2021/12/29 11:12:18;;;;;;;;;;;;;;;21.00;33.89;100422.13;101578;1351;61472;-83
2021/12/29 11:15:07;;;;;;;;;;;;;;;21.00;33.89;100427.46;101792;1351;61376;-83
2021/12/29 11:18:04;;;;;;;;;;;;;;;21.00;33.90;100418.38;101701;1358;71508;-83
2021/12/29 11:20:53;;;;;;;;;;;;;;;21.00;33.94;100411.05;101647;1357;75748;-83
2021/12/29 11:23:30;;;;;;;;;;;;;;;21.00;34.00;100398.90;101692;1354;61327;-83
2021/12/29 11:26:39;;;;;;;;;;;;;;;20.99;33.96;100403.02;101650;1357;62268;-82
2021/12/29 11:29:09;;;;;;;;;;;;;;;21.00;33.85;100409.62;101853;1346;72744;-82
2021/12/29 11:31:59;;;;;;;;;;;;;;;20.99;34.00;100411.25;101890;1352;76533;-83
2021/12/29 11:34:36;;;;;;;;;;;;;;;21.00;34.03;100418.56;101960;1348;61293;-82
2021/12/29 11:37:49;;;;;;;;;;;;;;;;;;;;;
2021/12/29 11:40:39;;;;;;;;;;;;;;;20.99;34.16;100424.14;102021;1349;72590;-82
2021/12/29 11:43:14;;;;;;;;;;;;;;;20.99;33.91;100429.15;101950;1345;76441;-82
2021/12/29 11:46:03;;;;;;;;;;;;;;;20.99;33.96;100432.38;101843;1345;60666;-82
2021/12/29 11:48:38;;;;;;;;;;;;;;;21.00;33.95;100431.81;101944;1348;61177;-81
2021/12/29 11:51:05;;;;;;;;;;;;;;;20.99;34.01;100436.29;101870;1345;73939;-83
2021/12/29 11:54:04;;;;;;;;;;;;;;;;;;;;;
2021/12/29 11:56:45;;;;;;;;;;;;;;;20.99;34.09;100433.06;101928;1348;61303;-83
2021/12/29 11:59:29;;;;;;;;;;;;;;;21.00;34.05;100434.44;102045;1345;60523;-84
2021/12/29 12:02:09;;;;;;;;;;;;;;;21.00;34.13;100428.59;102090;1351;72765;-82
2021/12/29 12:05:07;;;;;;;;;;;;;;;21.00;34.01;100424.63;102079;1348;75343;-83
2021/12/29 12:08:11;;;;;;;;;;;;;;;;;;;;;
2021/12/29 12:11:01;;;;;;;;;;;;;;;20.99;34.23;100431.85;102127;1345;61321;-83
2021/12/29 12:13:41;;;;;;;;;;;;;;;20.98;34.22;100427.61;101736;1357;73859;-83
2021/12/29 12:16:27;;;;;;;;;;;;;;;20.98;34.09;100422.41;101666;1354;74964;-83
2021/12/29 12:19:27;;;;;;;;;;;;;;;;;;;;;
2021/12/29 12:22:27;;;;;;;;;;;;;;;20.98;34.01;100422.81;101333;1359;61314;-84
2021/12/29 12:25:28;;;;;;;;;;;;;;;;;;;;;
2021/12/29 12:28:34;;;;;;;;;;;;;;;;;;;;;
2021/12/29 12:31:11;;;;;;;;;;;;;;;20.98;34.16;100406.35;100524;1366;61319;-83
2021/12/29 12:34:09;;;;;;;;;;;;;;;;;;;;;
2021/12/29 12:36:39;;;;;;;;;;;;;;;20.98;34.19;100404.23;100689;1371;73412;-84
2021/12/29 12:39:30;;;;;;;;;;;;;;;20.98;34.11;100407.09;100819;1369;73390;-83
2021/12/29 12:42:17;;;;;;;;;;;;;;;20.98;34.17;100405.81;100261;1374;61389;-83
2021/12/29 12:45:09;;;;;;;;;;;;;;;20.97;34.13;100406.05;99679;1377;61589;-83
2021/12/29 12:48:06;;;;;;;;;;;;;;;20.97;34.14;100409.09;99630;1380;74070;-83
2021/12/29 12:50:46;;;;;;;;;;;;;;;20.97;34.20;100414.45;99842;1372;77131;-83
2021/12/29 12:53:41;;;;;;;;;;;;;;;20.97;34.18;100424.85;100206;1368;61366;-82
2021/12/29 12:56:48;;;;;;;;;;;;;;;20.97;34.16;100421.63;100336;1374;61363;-82
2021/12/29 12:59:24;;;;;;;;;;;;;;;20.97;34.23;100413.39;100727;1365;73855;-84
2021/12/29 13:02:22;;;;;;;;;;;;;;;20.97;34.22;100409.97;100702;1367;75087;-84
2021/12/29 13:05:22;;;;;;;;;;;;;;;20.97;34.23;100407.64;100703;1366;61275;-83
2021/12/29 13:08:21;;;;;;;;;;;;;;;20.98;34.12;100410.11;100629;1369;61318;-83
2021/12/29 13:11:12;;;;;;;;;;;;;;;;;;;;;
2021/12/29 13:14:03;;;;;;;;;;;;;;;20.97;34.22;100411.77;100559;1365;76490;-83
2021/12/29 13:16:49;;;;;;;;;;;;;;;;;;;;;
2021/12/29 13:19:17;;;;;;;;;;;;;;;20.98;34.26;100416.20;100896;1366;61070;-82
2021/12/29 13:22:24;;;;;;;;;;;;;;;20.98;34.29;100414.59;100951;1363;71586;-83
2021/12/29 13:25:15;;;;;;;;;;;;;;;20.98;34.19;100416.70;101347;1363;74825;-83
2021/12/29 13:28:04;;;;;;;;;;;;;;;;;;;;;
2021/12/29 13:31:10;;;;;;;;;;;;;;;;;;;;;
2021/12/29 13:33:54;;;;;;;;;;;;;;;20.98;34.24;100426.21;101397;1357;73941;-83
2021/12/29 13:36:48;;;;;;;;;;;;;;;20.97;34.32;100427.14;101436;1364;75790;-83
2021/12/29 13:39:19;;;;;;;;;;;;;;;20.97;34.21;100428.95;101402;1356;61281;-84
2021/12/29 13:42:14;;;;;;;;;;;;;;;20.97;34.17;100433.80;101543;1359;60470;-84
2021/12/29 13:45:02;;;;;;;;;;;;;;;20.97;34.27;100438.63;101733;1355;75053;-84
2021/12/29 13:48:11;;;;;;;;;;;;;;;20.97;34.41;100437.25;101708;1355;74754;-84
2021/12/29 13:50:49;;;;;;;;;;;;;;;;;;;;;
2021/12/29 13:54:12;;;;;;;;;;;;;;;20.96;34.20;100437.42;101682;1357;61241;-83
2021/12/29 13:57:29;;;;;;;;;;;;;;;20.95;34.28;100436.77;101660;1357;73454;-83
2021/12/29 13:59:53;;;;;;;;;;;;;;;20.96;34.29;100435.65;101890;1345;73704;-82
2021/12/29 14:02:31;;;;;;;;;;;;;;;20.96;34.23;100431.94;101930;1345;61267;-83
2021/12/29 14:05:20;;;;;;;;;;;;;;;20.96;34.43;100433.52;101990;1351;61300;-84
2021/12/29 14:08:03;;;;;;;;;;;;;;;20.96;34.15;100438.70;102009;1345;73999;-82
2021/12/29 14:10:58;;;;;;;;;;;;;;;20.96;34.18;100443.36;102008;1345;74895;-83
2021/12/29 14:13:50;;;;;;;;;;;;;;;20.95;34.42;100443.24;102028;1349;61326;-82
2021/12/29 14:17:11;;;;;;;;;;;;;;;20.95;34.26;100443.61;101769;1351;61454;-82
2021/12/29 14:19:57;;;;;;;;;;;;;;;20.95;34.40;100444.89;101487;1361;71731;-83
2021/12/29 14:23:02;;;;;;;;;;;;;;;;;;;;;
2021/12/29 14:25:59;;;;;;;;;;;;;;;20.95;34.37;100459.38;100828;1362;61231;-83
2021/12/29 14:29:15;;;;;;;;;;;;;;;20.93;34.42;100455.15;100837;1370;61253;-84
2021/12/29 14:32:00;;;;;;;;;;;;;;;20.95;34.42;100456.70;100812;1369;74216;-84
2021/12/29 14:34:59;;;;;;;;;;;;;;;20.94;34.37;100453.16;100744;1363;76226;-83
2021/12/29 14:37:45;;;;;;;;;;;;;;;20.93;34.40;100453.73;100282;1369;61476;-83
2021/12/29 14:40:39;;;;;;;;;;;;;;;20.94;34.40;100458.71;100286;1369;60589;-83
2021/12/29 14:43:46;;;;;;;;;;;;;;;20.93;34.37;100456.95;100245;1375;74045;-84
2021/12/29 14:46:57;;;;;;;;;;;;;;;20.93;34.40;100461.98;99943;1374;75664;-83
2021/12/29 14:49:46;;;;;;;;;;;;;;;20.93;34.43;100463.77;99931;1375;61036;-83
2021/12/29 14:52:36;;;;;;;;;;;;;;;20.92;34.43;100462.58;99942;1375;61950;-83
2021/12/29 14:55:21;;;;;;;;;;;;;;;20.92;34.42;100462.06;100808;1366;72778;-83
2021/12/29 14:58:06;;;;;;;;;;;;;;;;;;;;;
2021/12/29 15:00:51;;;;;;;;;;;;;;;;;;;;;
2021/12/29 15:03:38;;;;;;;;;;;;;;;20.91;34.24;100455.48;101585;1361;62509;-83
2021/12/29 15:07:10;;;;;;;;;;;;;;;20.91;34.51;100458.54;101411;1357;71542;-83
2021/12/29 15:11:02;;;;;;;;;;;;;;;20.93;34.37;100457.16;101092;1341;599426;-82
2021/12/29 15:13:29;;;;;;;;;;;;;;;20.90;34.35;100456.80;101390;1344;73259;-82
2021/12/29 15:16:09;;;;;;;;;;;;;;;20.91;34.24;100458.36;101409;1344;60090;-83
2021/12/29 15:18:55;;;;;;;;;;;;;;;20.91;34.27;100457.48;101135;1350;61375;-83
2021/12/29 15:21:41;;;;;;;;;;;;;;;20.91;34.22;100459.83;101395;1344;72586;-83
2021/12/29 15:24:17;;;;;;;;;;;;;;;;;;;;;
2021/12/29 15:27:01;;;;;;;;;;;;;;;20.90;34.42;100460.42;101451;1341;59996;-82
2021/12/29 15:29:29;;;;;;;;;;;;;;;20.90;34.47;100455.95;101493;1348;60401;-83
2021/12/29 15:32:03;;;;;;;;;;;;;;;20.90;34.26;100453.81;101520;1340;72867;-83
2021/12/29 15:34:59;;;;;;;;;;;;;;;20.89;34.39;100462.25;101418;1341;71128;-83
2021/12/29 15:37:33;;;;;;;;;;;;;;;20.89;34.44;100460.54;101419;1341;60267;-83
2021/12/29 15:40:20;;;;;;;;;;;;;;;20.88;34.30;100455.73;101470;1341;59653;-83
2021/12/29 15:42:46;;;;;;;;;;;;;;;20.88;34.45;100454.85;101383;1341;72089;-82
2021/12/29 15:45:35;;;;;;;;;;;;;;;20.87;34.36;100453.31;101370;1348;74263;-82
2021/12/29 15:48:00;;;;;;;;;;;;;;;20.87;34.54;100448.66;101427;1341;60156;-83
2021/12/29 15:50:27;;;;;;;;;;;;;;;20.87;34.43;100448.48;101439;1341;59668;-83
2021/12/29 15:53:23;;;;;;;;;;;;;;;;;;;;;
2021/12/29 15:56:19;;;;;;;;;;;;;;;20.86;34.37;100458.21;101318;1344;71946;-83
2021/12/29 15:59:28;;;;;;;;;;;;;;;20.86;34.26;100462.00;101425;1344;60201;-83
2021/12/29 16:01:56;;;;;;;;;;;;;;;20.86;34.41;100468.77;100994;1352;59679;-83
2021/12/29 16:04:29;;;;;;;;;;;;;;;20.86;34.48;100468.28;100883;1347;73194;-83